Bigfork, MN

11:28 PM CDT on May 23, 2017 (GMT -0500)
Bigfork Municipal | | Change Station
Active Advisory: Frost Advisory

Elev 1345 ft 47.78 °N, 93.65 °W | Updated 16 minutes ago

Clear
Clear
39 °F
Feels Like 39 °F
N
0
Wind Variable Wind from North

Today
High -- | Low -- °F
--% Chance of Precip.
Yesterday
High -- | Low -- °F
Precip. -- in
Pressure 29.92 in
Visibility 10.0 miles
Clouds Clear
Dew Point 37 °F
Humidity 93%
Rainfall 0.01 in
Snow Depth Not available.
5:27 AM 8:56 PM
Waning Crescent, 4% visible
METAR KFOZ 240412Z AUTO 00000KT 10SM CLR 04/03 A2992 RMK AO2
Pressure 29.92 in
Visibility 10.0 miles
Clouds Clear
Dew Point 37 °F
Humidity 93%
Rainfall 0.01 in
Snow Depth Not available.
5:27 AM 8:56 PM
Waning Crescent, 4% visible
METAR KFOZ 240412Z AUTO 00000KT 10SM CLR 04/03 A2992 RMK AO2

Get Your Daily Forecast Email!

Thanks for signing up!

Be on the lookout for a verification email in your inbox.

You'll start receiving severe weather alerts in your inbox..

×

10-Day Weather Forecast

Almanac

Astronomy

May. 23, 2017 Rise Set
Actual Time
Civil Twilight
Nautical Twilight
Astronomical Twilight
Moon
Length of Visible Light
Length of Day
Tomorrow will be .
, % of the Moon is Illuminated

Today's Extremes

State Highs State Lows

Community

WunderPhotos

Category 6

Welcome to Category 6. This is the collective home for Weather Underground's featured writeups by Dr. Jeff Masters (right), Bob Henson (left), Chris Burt, and other regular contributors.

Nearby

Air Quality

  Air Quality AQ Index Pollutant
Not available.

Snow Depth

Station Depth Elevation

Earthquake Activity

City Distance Mag. Time & Date
Minimum magnitude displayed is 2.5.

Coastal Water Temperatures

Place Temperature

Stations

Nearby Weather Stations

Station Location Temp. Windchill Dew Point Humidity Wind Precip. Elev Updated Type
                   

Watches & Warnings

Frost Advisory
Issued: 9:31 PM CDT May. 23, 2017 – National Weather Service

... Frost advisory remains in effect from 3 am to 7 am CDT
Wednesday...

* location... north central Minnesota, including the
International Falls, Ely, and Bigfork areas.

* Temperatures... in the lower to middle 30s.

* Timing... from the wee hours of Wednesday morning through a
couple hours after sunrise.

Precautionary/preparedness actions...

A frost advisory means that widespread frost is expected.
Sensitive outdoor plants may be damaged or killed if left
uncovered.